M I D A S
Marine Information and Data Acquisition System
Tripno 1024 of the Zeeleeuw from 2006-01-17 09:22:20 to 2006-01-17 12:20:56
Back to CruiseResearch ActivitiesStationsMapUnderway DataData graphs

EquipmentUnitsComment
TimeDGPSUTC
LatitudeDGPSDM.mWGS84
LongitudeDGPSDM.mWGS84
TemperatureSBE03/SBE38deg celciusITS90
ConductivitySBE21S/mITS90
SalinitySBE21 Practical Salinity Units
ChlorophylAChelsea fluorimeterg/lCalibrated in Aceton
Missing or incorrect values are displayed as -999
Sea surface data collected by the RV Zeeleeuw from 2006-01-17 09:22:37 to 2006-01-17 12:33:39
Time Latitude Longitude Temperature Conductivity Salinity ChlorophylA
2006-01-17 09:23:44 51°13.619 2°56.032 -999 0.06539 0.33997 0.870512
2006-01-17 09:24:44 51°13.644 2°55.925 -999 0.065288 0.339436 0.904221
2006-01-17 09:25:43 51°13.672 2°55.821 -999 0.065288 0.339453 0.904221
2006-01-17 09:26:43 51°13.686 2°55.74 -999 0.065288 0.339458 0.93793
2006-01-17 09:27:43 51°13.706 2°55.752 -999 0.065288 0.339497 0.904221
2006-01-17 09:28:43 51°13.763 2°55.705 -999 0.065288 0.339481 0.904221
2006-01-17 09:29:43 51°13.849 2°55.621 -999 0.065288 0.339503 0.904221
2006-01-17 09:30:43 51°13.948 2°55.546 -999 0.065288 0.339531 0.904221
2006-01-17 09:31:43 51°14.05 2°55.475 -999 0.065288 0.339548 0.904221
2006-01-17 09:32:43 51°14.161 2°55.386 -999 0.065288 0.339565 0.93793
2006-01-17 09:33:43 51°14.281 2°55.227 -999 0.065288 0.339582 0.904221
2006-01-17 09:34:42 51°14.397 2°55.023 -999 0.065288 0.339593 0.904221
2006-01-17 09:35:43 51°14.557 2°54.87 -999 0.065288 0.33961 1.005349
2006-01-17 09:36:43 51°14.748 2°54.808 -999 0.065288 0.339632 1.106477
2006-01-17 09:37:42 51°14.941 2°54.732 -999 0.065288 0.339643 1.072768
2006-01-17 09:38:43 51°15.139 2°54.657 -999 0.065288 0.33966 1.241315
2006-01-17 09:39:42 51°15.331 2°54.595 -999 0.065288 0.339677 1.241315
2006-01-17 09:40:43 51°15.532 2°54.517 -999 0.065288 0.339694 1.342443
2006-01-17 09:41:43 51°15.731 2°54.445 -999 0.065288 0.339716 1.207606
2006-01-17 09:42:42 51°15.922 2°54.376 -999 0.065288 0.339739 1.106477
2006-01-17 09:43:42 51°16.117 2°54.312 -999 0.065288 0.339767 1.207606
2006-01-17 09:44:43 51°16.204 2°54.35 -999 0.065288 0.339789 1.578409
2006-01-17 09:45:42 51°16.218 2°54.359 -999 0.065288 0.339823 1.207606
2006-01-17 09:46:42 51°16.225 2°54.357 -999 0.065288 0.339834 1.173896
2006-01-17 09:47:43 51°16.229 2°54.35 -999 0.065288 0.339857 1.207606
2006-01-17 09:48:43 51°16.232 2°54.338 -999 0.065185 0.339322 1.173896
2006-01-17 09:49:44 51°16.233 2°54.323 -999 0.065185 0.33935 1.173896
2006-01-17 09:50:43 51°16.23 2°54.305 -999 0.065185 0.339373 1.140187
2006-01-17 09:51:42 51°16.226 2°54.287 -999 0.065185 0.339401 1.173896
2006-01-17 09:52:43 51°16.22 2°54.27 -999 0.065185 0.339417 1.173896
2006-01-17 09:53:43 51°16.212 2°54.256 -999 0.065185 0.339446 1.173896
2006-01-17 09:54:43 51°16.206 2°54.242 -999 0.065185 0.339474 1.173896
2006-01-17 09:55:43 51°16.197 2°54.229 -999 0.065185 0.339513 1.173896
2006-01-17 09:56:43 51°16.188 2°54.219 -999 0.065185 0.339547 1.207606
2006-01-17 09:57:42 51°16.181 2°54.209 -999 0.065185 0.339592 1.140187
2006-01-17 09:58:43 51°16.171 2°54.199 -999 0.065185 0.339625 1.173896
2006-01-17 09:59:43 51°16.161 2°54.189 -999 0.065185 0.33967 1.140187
2006-01-17 10:00:42 51°16.152 2°54.179 -999 0.065185 0.339715 1.140187
2006-01-17 10:01:43 51°16.142 2°54.168 -999 0.065185 0.33976 1.173896
2006-01-17 10:02:42 51°16.134 2°54.158 -999 0.065082 0.339248 1.207606
2006-01-17 10:03:43 51°16.126 2°54.147 -999 0.065082 0.339287 1.173896
2006-01-17 10:04:43 51°16.119 2°54.136 -999 0.065082 0.339332 1.207606
2006-01-17 10:05:42 51°16.112 2°54.125 -999 0.065082 0.339388 1.173896
2006-01-17 10:06:43 51°16.105 2°54.114 -999 0.065082 0.339444 1.173896
2006-01-17 10:07:43 51°16.098 2°54.104 -999 0.065082 0.339506 1.140187
2006-01-17 10:08:43 51°16.119 2°54.086 -999 0.065082 0.339557 1.5447
2006-01-17 10:09:43 51°16.168 2°54.148 -999 0.064979 0.339066 1.612118
2006-01-17 10:10:43 51°16.235 2°54.226 -999 0.064979 0.339117 1.443571
2006-01-17 10:11:43 51°16.281 2°54.276 -999 0.064979 0.339162 1.477281
2006-01-17 10:12:43 51°16.3 2°54.314 -999 0.064979 0.339213 1.51099
2006-01-17 10:13:43 51°16.304 2°54.342 -999 0.064979 0.339258 1.443571
2006-01-17 10:14:43 51°16.301 2°54.364 -999 0.064979 0.339297 1.51099
2006-01-17 10:15:42 51°16.294 2°54.379 -999 0.064979 0.339336 1.645828
2006-01-17 10:16:43 51°16.286 2°54.39 -999 0.064979 0.339382 1.5447
2006-01-17 10:17:43 51°16.275 2°54.397 -999 0.064979 0.339427 1.51099
2006-01-17 10:18:42 51°16.263 2°54.401 -999 0.064979 0.339466 1.275024
2006-01-17 10:19:43 51°16.251 2°54.401 -999 0.064876 0.338958 1.207606
2006-01-17 10:20:43 51°16.24 2°54.399 -999 0.064876 0.338997 1.241315
2006-01-17 10:21:43 51°16.229 2°54.396 -999 0.064876 0.339031 1.173896
2006-01-17 10:22:43 51°16.22 2°54.392 -999 0.064876 0.339076 1.173896
2006-01-17 10:23:43 51°16.21 2°54.387 -999 0.064876 0.339116 1.140187
2006-01-17 10:24:43 51°16.201 2°54.382 -999 0.064876 0.339155 1.173896
2006-01-17 10:25:42 51°16.193 2°54.377 -999 0.064876 0.339195 1.173896
2006-01-17 10:26:43 51°16.184 2°54.372 -999 0.064876 0.339234 1.308734
2006-01-17 10:27:43 51°16.176 2°54.368 -999 0.064876 0.339274 1.207606
2006-01-17 10:28:43 51°16.167 2°54.364 -999 0.064876 0.339313 1.106477
2006-01-17 10:29:43 51°16.159 2°54.361 -999 0.064876 0.339353 1.207606
2006-01-17 10:30:43 51°16.151 2°54.358 -999 0.064773 0.338838 1.106477
2006-01-17 10:31:43 51°16.142 2°54.354 -999 0.064773 0.338872 1.106477
2006-01-17 10:32:42 51°16.133 2°54.351 -999 0.064773 0.338911 1.106477
2006-01-17 10:33:43 51°16.123 2°54.348 -999 0.064773 0.338951 1.106477
2006-01-17 10:34:43 51°16.114 2°54.345 -999 0.064773 0.33899 1.173896
2006-01-17 10:35:43 51°16.105 2°54.341 -999 0.064773 0.33903 1.275024
2006-01-17 10:36:42 51°16.077 2°54.341 -999 0.064773 0.339064 1.072768
2006-01-17 10:37:43 51°16.03 2°54.267 -999 0.064773 0.339115 1.072768
2006-01-17 10:38:43 51°16.054 2°54.174 -999 0.06467 0.3386 1.072768
2006-01-17 10:39:43 51°16.107 2°54.206 -999 0.0693 0.363886 1.275024
2006-01-17 10:40:43 51°16.178 2°54.261 -999 0.124349 0.668416 1.241315
2006-01-17 10:41:43 51°16.265 2°54.308 -999 0.129185 0.695559 1.241315
2006-01-17 10:42:43 51°16.316 2°54.347 -999 0.213257 1.21423 1.207606
2006-01-17 10:43:43 51°16.316 2°54.363 -999 1.90129 13.247558 1.241315
2006-01-17 10:44:43 51°16.31 2°54.379 -999 3.087068 23.569612 1.207606
2006-01-17 10:45:43 51°16.302 2°54.392 -999 3.162797 24.253688 1.207606
2006-01-17 10:46:43 51°16.293 2°54.401 -999 3.170352 24.429003 1.241315
2006-01-17 10:47:43 51°16.283 2°54.407 -999 3.071866 23.717201 1.241315
2006-01-17 10:48:43 51°16.274 2°54.409 -999 3.011253 23.240761 1.241315
2006-01-17 10:49:43 51°16.265 2°54.409 -999 2.981782 23.334166 1.207606
2006-01-17 10:50:43 51°16.256 2°54.409 -999 2.946935 23.310852 1.207606
2006-01-17 10:51:43 51°16.248 2°54.409 -999 3.016441 24.269691 1.207606
2006-01-17 10:52:43 51°16.24 2°54.411 -999 3.144825 25.94644 1.241315
2006-01-17 10:53:43 51°16.233 2°54.412 -999 3.313087 27.864868 1.241315
2006-01-17 10:54:43 51°16.224 2°54.414 -999 3.443104 29.373199 1.241315
2006-01-17 10:55:43 51°16.217 2°54.416 -999 3.515686 30.275776 1.241315
2006-01-17 10:56:43 51°16.209 2°54.418 -999 3.552446 30.645893 1.241315
2006-01-17 10:57:43 51°16.201 2°54.422 -999 3.575642 30.842367 1.241315
2006-01-17 10:58:43 51°16.158 2°54.424 -999 3.599252 30.952916 1.241315
2006-01-17 10:59:42 51°16.108 2°54.326 -999 3.622861 30.903499 1.241315
2006-01-17 11:00:43 51°16.188 2°54.196 -999 3.634875 31.00177 1.241315
2006-01-17 11:01:43 51°16.297 2°54.026 -999 3.670706 30.899317 1.241315
2006-01-17 11:02:43 51°16.415 2°53.849 -999 3.704268 31.285429 1.241315
2006-01-17 11:03:43 51°16.534 2°53.675 -999 3.726432 31.1458 1.241315
2006-01-17 11:04:43 51°16.656 2°53.508 -999 3.744455 31.159906 1.241315
2006-01-17 11:05:43 51°16.774 2°53.336 -999 3.762992 30.892358 1.241315
2006-01-17 11:06:43 51°16.89 2°53.163 -999 3.789719 30.913488 1.241315
2006-01-17 11:07:43 51°17.006 2°52.993 -999 3.820385 31.01025 1.241315
2006-01-17 11:08:42 51°17.119 2°52.821 -999 3.855196 31.069405 1.241315
2006-01-17 11:09:43 51°17.234 2°52.644 -999 3.884418 31.287738 1.241315
2006-01-17 11:10:43 51°17.348 2°52.47 -999 3.912602 31.335665 1.275024
2006-01-17 11:11:43 51°17.467 2°52.303 -999 3.942448 31.446229 1.275024
2006-01-17 11:12:43 51°17.585 2°52.136 -999 3.969188 31.66469 1.275024
2006-01-17 11:13:43 51°17.704 2°51.968 -999 3.992609 31.622646 1.275024
2006-01-17 11:14:43 51°17.827 2°51.811 -999 4.01645 31.80016 1.275024
2006-01-17 11:15:43 51°17.951 2°51.655 -999 4.038115 32.016696 1.275024
2006-01-17 11:16:43 51°18.077 2°51.499 -999 4.061437 32.049368 1.275024
2006-01-17 11:17:42 51°18.201 2°51.347 -999 4.08165 32.009497 1.275024
2006-01-17 11:18:43 51°18.306 2°51.216 -999 4.098752 31.90916 1.275024
2006-01-17 11:19:42 51°18.363 2°51.131 -999 4.116273 31.993233 1.275024
2006-01-17 11:20:43 51°18.409 2°51.075 -999 4.131617 32.065345 1.275024
2006-01-17 11:21:43 51°18.444 2°51.038 -999 4.144889 32.138126 1.275024
2006-01-17 11:22:43 51°18.47 2°51.01 -999 4.15702 32.232719 1.275024
2006-01-17 11:23:43 51°18.49 2°50.988 -999 4.16656 32.31789 1.275024
2006-01-17 11:24:42 51°18.504 2°50.971 -999 4.174233 32.353684 1.275024
2006-01-17 11:25:43 51°18.51 2°50.953 -999 4.181697 32.324595 1.275024
2006-01-17 11:26:43 51°18.512 2°50.936 -999 4.190614 32.32504 1.275024
2006-01-17 11:27:43 51°18.51 2°50.922 -999 4.199117 32.347149 1.275024
2006-01-17 11:28:43 51°18.507 2°50.911 -999 4.207828 32.42078 1.275024
2006-01-17 11:29:43 51°18.502 2°50.902 -999 4.215398 32.487212 1.275024
2006-01-17 11:30:43 51°18.496 2°50.893 -999 4.222347 32.553515 1.275024
2006-01-17 11:31:43 51°18.489 2°50.886 -999 4.22774 32.607116 1.275024
2006-01-17 11:32:43 51°18.481 2°50.88 -999 4.232095 32.652467 1.275024
2006-01-17 11:33:43 51°18.473 2°50.876 -999 4.235622 32.687428 1.275024
2006-01-17 11:34:43 51°18.466 2°50.872 -999 4.238215 32.713701 1.275024
2006-01-17 11:35:43 51°18.459 2°50.869 -999 4.241326 32.739217 1.275024
2006-01-17 11:36:43 51°18.451 2°50.865 -999 4.244645 32.765867 1.275024
2006-01-17 11:37:43 51°18.445 2°50.862 -999 4.24786 32.789001 1.275024
2006-01-17 11:38:43 51°18.438 2°50.859 -999 4.251386 32.814159 1.275024
2006-01-17 11:39:43 51°18.431 2°50.857 -999 4.255431 32.844441 1.308734
2006-01-17 11:40:43 51°18.426 2°50.854 -999 4.259579 32.876928 1.275024
2006-01-17 11:41:43 51°18.421 2°50.852 -999 4.264143 32.91102 1.275024
2006-01-17 11:42:43 51°18.417 2°50.85 -999 4.26881 32.945344 1.275024
2006-01-17 11:43:43 51°18.414 2°50.848 -999 4.273166 32.980274 1.275024
2006-01-17 11:44:43 51°18.411 2°50.846 -999 4.277003 33.006778 1.275024
2006-01-17 11:45:43 51°18.408 2°50.845 -999 4.28053 33.030592 1.275024
2006-01-17 11:46:43 51°18.405 2°50.844 -999 4.283849 33.055913 1.275024
2006-01-17 11:47:43 51°18.404 2°50.844 -999 4.287583 33.082828 1.275024
2006-01-17 11:48:43 51°18.403 2°50.845 -999 4.290694 33.103053 1.308734
2006-01-17 11:49:43 51°18.403 2°50.846 -999 4.293598 33.124789 1.308734
2006-01-17 11:50:43 51°18.402 2°50.848 -999 4.296295 33.13614 1.275024
2006-01-17 11:51:43 51°18.401 2°50.85 -999 4.298888 33.15122 1.275024
2006-01-17 11:52:43 51°18.401 2°50.851 -999 4.301585 33.16785 1.275024
2006-01-17 11:53:43 51°18.402 2°50.853 -999 4.304074 33.180705 1.275024
2006-01-17 11:54:43 51°18.402 2°50.856 -999 4.306148 33.187997 1.275024
2006-01-17 11:55:43 51°18.403 2°50.861 -999 4.308326 33.197502 1.275024
2006-01-17 11:56:43 51°18.412 2°50.863 -999 4.30677 33.179476 1.275024
2006-01-17 11:57:43 51°18.473 2°50.962 -999 4.313305 33.221199 1.275024
2006-01-17 11:58:43 51°18.402 2°51.162 -999 4.315691 33.227189 1.275024
2006-01-17 11:59:43 51°18.223 2°51.331 -999 4.319424 33.2177 1.275024
2006-01-17 12:00:44 51°18.039 2°51.512 -999 4.321395 33.235303 1.275024
2006-01-17 12:01:43 51°17.861 2°51.691 -999 4.323365 33.206736 1.275024
2006-01-17 12:02:44 51°17.677 2°51.875 -999 4.324713 33.207776 1.275024
2006-01-17 12:03:44 51°17.487 2°52.041 -999 4.325544 33.237306 1.275024
2006-01-17 12:04:44 51°17.294 2°52.199 -999 4.325751 33.206147 1.275024
2006-01-17 12:05:44 51°17.101 2°52.361 -999 0.864097 5.702903 4.275161
2006-01-17 12:06:43 51°16.91 2°52.523 -999 0.13567 0.804899 3.634683
2006-01-17 12:07:43 51°16.716 2°52.691 -999 0.071462 0.41014 3.600973
2006-01-17 12:08:43 51°16.522 2°52.863 -999 0.065083 0.36869 3.634683
2006-01-17 12:09:44 51°16.326 2°53.035 -999 0.063025 0.362411 3.668392
2006-01-17 12:10:44 51°16.133 2°53.194 -999 0.061482 0.360791 3.432426
2006-01-17 12:11:44 51°15.942 2°53.357 -999 0.06035 0.358855 3.567264
2006-01-17 12:12:44 51°15.751 2°53.513 -999 0.059218 0.358201 3.398717
2006-01-17 12:13:44 51°15.562 2°53.673 -999 0.057881 0.35932 3.499845
2006-01-17 12:14:44 51°15.372 2°53.829 -999 0.056132 0.358539 3.365007
2006-01-17 12:15:43 51°15.185 2°53.981 -999 0.054589 0.356068 3.432426
2006-01-17 12:16:44 51°14.994 2°54.144 -999 0.053457 0.355045 3.129042
2006-01-17 12:17:44 51°14.809 2°54.308 -999 0.052531 0.354661 2.960494
2006-01-17 12:18:44 51°14.658 2°54.501 -999 0.051708 0.353823 2.994204
2006-01-17 12:19:43 51°14.532 2°54.729 -999 0.05109 0.353221 3.19646
2006-01-17 12:20:44 51°14.41 2°54.975 -999 0.050576 0.352252 3.129042
2006-01-17 12:21:44 51°14.286 2°55.207 -999 0.050267 0.352278 2.926785
2006-01-17 12:22:44 51°14.181 2°55.375 -999 0.050165 0.352065 0.93793
2006-01-17 12:23:43 51°14.075 2°55.464 -999 0.050165 0.351919 0.93793
2006-01-17 12:24:44 51°13.976 2°55.534 -999 0.050165 0.351824 0.93793
2006-01-17 12:25:44 51°13.884 2°55.597 -999 0.050165 0.351893 0.93793
2006-01-17 12:26:44 51°13.806 2°55.656 -999 0.050165 0.351634 0.904221
2006-01-17 12:27:44 51°13.741 2°55.736 -999 0.050165 0.351101 0.904221
2006-01-17 12:28:44 51°13.69 2°55.837 -999 0.050267 0.35152 0.904221
2006-01-17 12:29:44 51°13.645 2°55.943 -999 0.050267 0.351194 0.904221
2006-01-17 12:30:43 51°13.615 2°56.029 -999 0.05037 0.351665 0.870512
2006-01-17 12:31:44 51°13.602 2°56.082 -999 0.050473 0.352109 0.870512
2006-01-17 12:32:44 51°13.599 2°56.091 -999 0.050473 0.351852 0.870512